sensor_id;sensor_type;location;lat;lon;timestamp;P1;durP1;ratioP1;P2;durP2;ratioP2
76814;SDS011;65768;49.906;19.384;2023-02-15T00:00:11;62.10;;;32.40;;
76814;SDS011;65768;49.906;19.384;2023-02-15T00:03:21;63.10;;;28.20;;
76814;SDS011;65768;49.906;19.384;2023-02-15T00:05:49;67.70;;;32.10;;
76814;SDS011;65768;49.906;19.384;2023-02-15T00:08:17;72.70;;;34.50;;
76814;SDS011;65768;49.906;19.384;2023-02-15T00:10:45;84.20;;;37.70;;
76814;SDS011;65768;49.906;19.384;2023-02-15T00:13:13;76.70;;;34.30;;
76814;SDS011;65768;49.906;19.384;2023-02-15T00:15:41;81.10;;;35.80;;
76814;SDS011;65768;49.906;19.384;2023-02-15T00:18:09;82.00;;;38.40;;
76814;SDS011;65768;49.906;19.384;2023-02-15T00:20:38;86.30;;;39.60;;
76814;SDS011;65768;49.906;19.384;2023-02-15T00:23:06;82.60;;;40.00;;
76814;SDS011;65768;49.906;19.384;2023-02-15T00:25:34;79.40;;;41.40;;
76814;SDS011;65768;49.906;19.384;2023-02-15T00:28:02;80.40;;;39.50;;
76814;SDS011;65768;49.906;19.384;2023-02-15T00:30:30;86.20;;;39.60;;
76814;SDS011;65768;49.906;19.384;2023-02-15T00:32:59;84.80;;;39.00;;
76814;SDS011;65768;49.906;19.384;2023-02-15T00:35:27;85.30;;;40.10;;
76814;SDS011;65768;49.906;19.384;2023-02-15T00:37:55;83.60;;;40.30;;
76814;SDS011;65768;49.906;19.384;2023-02-15T00:40:24;79.80;;;37.00;;
76814;SDS011;65768;49.906;19.384;2023-02-15T00:42:53;83.40;;;37.40;;
76814;SDS011;65768;49.906;19.384;2023-02-15T00:45:21;81.30;;;37.60;;
76814;SDS011;65768;49.906;19.384;2023-02-15T00:47:49;87.20;;;42.00;;
76814;SDS011;65768;49.906;19.384;2023-02-15T00:50:18;78.10;;;37.70;;
76814;SDS011;65768;49.906;19.384;2023-02-15T00:52:46;73.60;;;36.20;;
76814;SDS011;65768;49.906;19.384;2023-02-15T00:55:14;76.90;;;34.90;;
76814;SDS011;65768;49.906;19.384;2023-02-15T00:57:42;70.20;;;35.60;;
76814;SDS011;65768;49.906;19.384;2023-02-15T01:00:10;68.60;;;32.70;;
76814;SDS011;65768;49.906;19.384;2023-02-15T01:02:39;75.20;;;33.40;;
76814;SDS011;65768;49.906;19.384;2023-02-15T01:05:07;72.30;;;33.10;;
76814;SDS011;65768;49.906;19.384;2023-02-15T01:07:35;60.00;;;29.00;;
76814;SDS011;65768;49.906;19.384;2023-02-15T01:10:04;58.90;;;26.70;;
76814;SDS011;65768;49.906;19.384;2023-02-15T01:12:34;56.20;;;27.00;;
76814;SDS011;65768;49.906;19.384;2023-02-15T01:15:02;52.30;;;27.70;;
76814;SDS011;65768;49.906;19.384;2023-02-15T01:17:31;60.10;;;28.30;;
76814;SDS011;65768;49.906;19.384;2023-02-15T01:19:59;58.30;;;29.70;;
76814;SDS011;65768;49.906;19.384;2023-02-15T01:22:27;63.00;;;29.40;;
76814;SDS011;65768;49.906;19.384;2023-02-15T01:24:55;52.60;;;28.20;;
76814;SDS011;65768;49.906;19.384;2023-02-15T01:27:24;54.10;;;27.10;;
76814;SDS011;65768;49.906;19.384;2023-02-15T01:29:52;46.30;;;21.50;;
76814;SDS011;65768;49.906;19.384;2023-02-15T01:32:20;42.00;;;21.20;;
76814;SDS011;65768;49.906;19.384;2023-02-15T01:34:48;50.30;;;24.30;;
76814;SDS011;65768;49.906;19.384;2023-02-15T01:37:16;50.50;;;25.40;;
76814;SDS011;65768;49.906;19.384;2023-02-15T01:39:44;53.30;;;25.70;;
76814;SDS011;65768;49.906;19.384;2023-02-15T01:42:12;53.20;;;24.80;;
76814;SDS011;65768;49.906;19.384;2023-02-15T01:44:51;59.00;;;29.50;;
76814;SDS011;65768;49.906;19.384;2023-02-15T01:47:24;58.90;;;27.40;;
76814;SDS011;65768;49.906;19.384;2023-02-15T01:52:40;49.90;;;25.30;;
76814;SDS011;65768;49.906;19.384;2023-02-15T01:55:33;59.10;;;27.10;;
76814;SDS011;65768;49.906;19.384;2023-02-15T01:58:06;44.70;;;24.80;;
76814;SDS011;65768;49.906;19.384;2023-02-15T02:00:35;51.90;;;25.00;;
76814;SDS011;65768;49.906;19.384;2023-02-15T02:03:03;54.50;;;25.30;;
76814;SDS011;65768;49.906;19.384;2023-02-15T02:05:31;56.70;;;25.30;;
76814;SDS011;65768;49.906;19.384;2023-02-15T02:08:00;51.80;;;27.00;;
76814;SDS011;65768;49.906;19.384;2023-02-15T02:10:29;54.70;;;28.80;;
76814;SDS011;65768;49.906;19.384;2023-02-15T02:12:59;58.40;;;29.40;;
76814;SDS011;65768;49.906;19.384;2023-02-15T02:15:51;61.20;;;28.10;;
76814;SDS011;65768;49.906;19.384;2023-02-15T02:41:18;44.60;;;21.80;;
76814;SDS011;65768;49.906;19.384;2023-02-15T02:46:28;53.20;;;24.10;;
76814;SDS011;65768;49.906;19.384;2023-02-15T02:49:01;38.50;;;19.30;;
76814;SDS011;65768;49.906;19.384;2023-02-15T02:51:29;37.40;;;18.60;;
76814;SDS011;65768;49.906;19.384;2023-02-15T02:53:58;36.20;;;18.30;;
76814;SDS011;65768;49.906;19.384;2023-02-15T02:56:41;40.90;;;18.20;;
76814;SDS011;65768;49.906;19.384;2023-02-15T02:59:16;38.20;;;18.60;;
76814;SDS011;65768;49.906;19.384;2023-02-15T03:01:59;34.80;;;17.20;;
76814;SDS011;65768;49.906;19.384;2023-02-15T03:04:43;40.30;;;18.60;;
76814;SDS011;65768;49.906;19.384;2023-02-15T03:07:17;37.60;;;19.50;;
76814;SDS011;65768;49.906;19.384;2023-02-15T03:09:53;35.10;;;18.50;;
76814;SDS011;65768;49.906;19.384;2023-02-15T03:12:29;38.20;;;18.10;;
76814;SDS011;65768;49.906;19.384;2023-02-15T03:17:31;32.10;;;16.10;;
76814;SDS011;65768;49.906;19.384;2023-02-15T03:20:04;29.50;;;15.20;;
76814;SDS011;65768;49.906;19.384;2023-02-15T03:22:38;30.40;;;13.70;;
76814;SDS011;65768;49.906;19.384;2023-02-15T03:25:14;26.10;;;12.20;;
76814;SDS011;65768;49.906;19.384;2023-02-15T03:28:09;23.00;;;10.30;;
76814;SDS011;65768;49.906;19.384;2023-02-15T03:30:43;30.90;;;13.60;;
76814;SDS011;65768;49.906;19.384;2023-02-15T03:33:15;28.50;;;13.70;;
76814;SDS011;65768;49.906;19.384;2023-02-15T03:35:54;32.00;;;13.40;;
76814;SDS011;65768;49.906;19.384;2023-02-15T03:38:39;25.40;;;12.90;;
76814;SDS011;65768;49.906;19.384;2023-02-15T03:41:15;23.10;;;12.00;;
76814;SDS011;65768;49.906;19.384;2023-02-15T03:43:54;26.80;;;13.50;;
76814;SDS011;65768;49.906;19.384;2023-02-15T03:46:42;23.70;;;11.80;;
76814;SDS011;65768;49.906;19.384;2023-02-15T03:49:22;23.50;;;11.00;;
76814;SDS011;65768;49.906;19.384;2023-02-15T03:51:53;27.60;;;12.90;;
76814;SDS011;65768;49.906;19.384;2023-02-15T03:54:26;25.40;;;13.20;;
76814;SDS011;65768;49.906;19.384;2023-02-15T03:57:11;24.90;;;12.60;;
76814;SDS011;65768;49.906;19.384;2023-02-15T03:59:58;25.60;;;12.40;;
76814;SDS011;65768;49.906;19.384;2023-02-15T04:02:52;20.50;;;10.20;;
76814;SDS011;65768;49.906;19.384;2023-02-15T04:05:32;23.40;;;11.80;;
76814;SDS011;65768;49.906;19.384;2023-02-15T04:08:00;17.90;;;9.90;;
76814;SDS011;65768;49.906;19.384;2023-02-15T04:10:28;21.90;;;10.10;;
76814;SDS011;65768;49.906;19.384;2023-02-15T04:13:15;25.20;;;11.80;;
76814;SDS011;65768;49.906;19.384;2023-02-15T04:15:43;27.00;;;13.20;;
76814;SDS011;65768;49.906;19.384;2023-02-15T04:18:33;26.90;;;12.00;;
76814;SDS011;65768;49.906;19.384;2023-02-15T04:21:23;26.10;;;12.80;;
76814;SDS011;65768;49.906;19.384;2023-02-15T04:24:12;22.90;;;11.30;;
76814;SDS011;65768;49.906;19.384;2023-02-15T04:26:59;26.00;;;12.50;;
76814;SDS011;65768;49.906;19.384;2023-02-15T04:29:28;31.40;;;12.30;;
76814;SDS011;65768;49.906;19.384;2023-02-15T04:31:57;27.70;;;13.80;;
76814;SDS011;65768;49.906;19.384;2023-02-15T04:34:27;30.30;;;14.00;;
76814;SDS011;65768;49.906;19.384;2023-02-15T04:36:55;27.70;;;13.40;;
76814;SDS011;65768;49.906;19.384;2023-02-15T04:39:23;27.30;;;12.60;;
76814;SDS011;65768;49.906;19.384;2023-02-15T04:41:51;29.00;;;12.60;;
76814;SDS011;65768;49.906;19.384;2023-02-15T04:44:19;28.90;;;14.40;;
76814;SDS011;65768;49.906;19.384;2023-02-15T04:46:47;32.90;;;14.30;;
76814;SDS011;65768;49.906;19.384;2023-02-15T04:49:15;33.00;;;15.30;;
76814;SDS011;65768;49.906;19.384;2023-02-15T04:51:43;34.40;;;16.70;;
76814;SDS011;65768;49.906;19.384;2023-02-15T04:54:11;33.40;;;15.60;;
76814;SDS011;65768;49.906;19.384;2023-02-15T04:56:39;35.60;;;17.80;;
76814;SDS011;65768;49.906;19.384;2023-02-15T04:59:09;33.40;;;16.10;;
76814;SDS011;65768;49.906;19.384;2023-02-15T05:01:38;31.10;;;15.10;;
76814;SDS011;65768;49.906;19.384;2023-02-15T05:04:06;35.30;;;15.90;;
76814;SDS011;65768;49.906;19.384;2023-02-15T05:06:33;36.60;;;16.70;;
76814;SDS011;65768;49.906;19.384;2023-02-15T05:09:01;40.70;;;17.40;;
76814;SDS011;65768;49.906;19.384;2023-02-15T05:11:30;38.60;;;20.10;;
76814;SDS011;65768;49.906;19.384;2023-02-15T05:13:58;32.80;;;15.90;;
76814;SDS011;65768;49.906;19.384;2023-02-15T05:16:26;31.60;;;14.70;;
76814;SDS011;65768;49.906;19.384;2023-02-15T05:18:55;35.90;;;13.70;;
76814;SDS011;65768;49.906;19.384;2023-02-15T05:21:23;32.80;;;13.60;;
76814;SDS011;65768;49.906;19.384;2023-02-15T05:23:51;30.40;;;14.10;;
76814;SDS011;65768;49.906;19.384;2023-02-15T05:26:20;38.60;;;14.60;;
76814;SDS011;65768;49.906;19.384;2023-02-15T05:29:09;30.70;;;14.50;;
76814;SDS011;65768;49.906;19.384;2023-02-15T05:31:38;31.00;;;14.30;;
76814;SDS011;65768;49.906;19.384;2023-02-15T05:34:06;37.00;;;15.50;;
76814;SDS011;65768;49.906;19.384;2023-02-15T05:36:34;35.80;;;14.90;;
76814;SDS011;65768;49.906;19.384;2023-02-15T05:39:02;28.90;;;15.30;;
76814;SDS011;65768;49.906;19.384;2023-02-15T05:41:33;30.60;;;14.30;;
76814;SDS011;65768;49.906;19.384;2023-02-15T05:44:01;34.70;;;14.20;;
76814;SDS011;65768;49.906;19.384;2023-02-15T05:46:29;31.10;;;16.50;;
76814;SDS011;65768;49.906;19.384;2023-02-15T05:48:57;35.50;;;15.10;;
76814;SDS011;65768;49.906;19.384;2023-02-15T05:51:25;34.30;;;16.60;;
76814;SDS011;65768;49.906;19.384;2023-02-15T05:53:53;33.20;;;16.00;;
76814;SDS011;65768;49.906;19.384;2023-02-15T05:56:21;43.10;;;17.10;;
76814;SDS011;65768;49.906;19.384;2023-02-15T05:58:49;25.40;;;12.60;;
76814;SDS011;65768;49.906;19.384;2023-02-15T06:01:17;29.10;;;14.60;;
76814;SDS011;65768;49.906;19.384;2023-02-15T06:03:46;32.70;;;16.60;;
76814;SDS011;65768;49.906;19.384;2023-02-15T06:06:14;46.20;;;20.20;;
76814;SDS011;65768;49.906;19.384;2023-02-15T06:08:43;46.20;;;22.10;;
76814;SDS011;65768;49.906;19.384;2023-02-15T06:11:11;47.50;;;22.30;;
76814;SDS011;65768;49.906;19.384;2023-02-15T06:13:39;46.50;;;20.60;;
76814;SDS011;65768;49.906;19.384;2023-02-15T06:16:07;47.10;;;20.80;;
76814;SDS011;65768;49.906;19.384;2023-02-15T06:18:35;41.00;;;20.30;;
76814;SDS011;65768;49.906;19.384;2023-02-15T06:21:03;44.50;;;19.70;;
76814;SDS011;65768;49.906;19.384;2023-02-15T06:23:31;47.20;;;20.60;;
76814;SDS011;65768;49.906;19.384;2023-02-15T06:25:59;43.80;;;20.80;;
76814;SDS011;65768;49.906;19.384;2023-02-15T06:28:27;50.00;;;23.50;;
76814;SDS011;65768;49.906;19.384;2023-02-15T06:30:55;44.70;;;22.40;;
76814;SDS011;65768;49.906;19.384;2023-02-15T06:33:23;45.90;;;20.30;;
76814;SDS011;65768;49.906;19.384;2023-02-15T06:35:51;49.10;;;22.50;;
76814;SDS011;65768;49.906;19.384;2023-02-15T06:38:19;52.90;;;23.10;;
76814;SDS011;65768;49.906;19.384;2023-02-15T06:40:47;57.60;;;25.00;;
76814;SDS011;65768;49.906;19.384;2023-02-15T06:43:15;55.40;;;24.20;;
76814;SDS011;65768;49.906;19.384;2023-02-15T06:45:43;61.20;;;27.10;;
76814;SDS011;65768;49.906;19.384;2023-02-15T06:48:11;52.60;;;25.70;;
76814;SDS011;65768;49.906;19.384;2023-02-15T06:50:39;46.40;;;22.60;;
76814;SDS011;65768;49.906;19.384;2023-02-15T06:53:08;45.30;;;23.10;;
76814;SDS011;65768;49.906;19.384;2023-02-15T06:55:36;41.10;;;20.40;;
76814;SDS011;65768;49.906;19.384;2023-02-15T06:58:04;46.40;;;20.20;;
76814;SDS011;65768;49.906;19.384;2023-02-15T07:00:32;44.20;;;21.70;;
76814;SDS011;65768;49.906;19.384;2023-02-15T07:03:00;46.30;;;21.60;;
76814;SDS011;65768;49.906;19.384;2023-02-15T07:05:32;42.90;;;20.00;;
76814;SDS011;65768;49.906;19.384;2023-02-15T07:08:01;41.50;;;18.30;;
76814;SDS011;65768;49.906;19.384;2023-02-15T07:10:29;39.60;;;17.10;;
76814;SDS011;65768;49.906;19.384;2023-02-15T07:12:57;43.50;;;18.00;;
76814;SDS011;65768;49.906;19.384;2023-02-15T07:15:25;32.60;;;14.70;;
76814;SDS011;65768;49.906;19.384;2023-02-15T07:17:53;32.10;;;14.40;;
76814;SDS011;65768;49.906;19.384;2023-02-15T07:20:22;30.90;;;15.20;;
76814;SDS011;65768;49.906;19.384;2023-02-15T07:22:50;39.50;;;17.50;;
76814;SDS011;65768;49.906;19.384;2023-02-15T07:25:19;37.20;;;16.80;;
76814;SDS011;65768;49.906;19.384;2023-02-15T07:27:47;38.10;;;17.30;;
76814;SDS011;65768;49.906;19.384;2023-02-15T07:30:16;36.40;;;16.20;;
76814;SDS011;65768;49.906;19.384;2023-02-15T07:32:44;37.80;;;16.00;;
76814;SDS011;65768;49.906;19.384;2023-02-15T07:35:31;34.00;;;15.70;;
76814;SDS011;65768;49.906;19.384;2023-02-15T07:38:00;32.20;;;14.50;;
76814;SDS011;65768;49.906;19.384;2023-02-15T07:40:29;35.20;;;15.80;;
76814;SDS011;65768;49.906;19.384;2023-02-15T07:42:57;34.70;;;17.10;;
76814;SDS011;65768;49.906;19.384;2023-02-15T07:45:26;42.30;;;17.50;;
76814;SDS011;65768;49.906;19.384;2023-02-15T07:47:54;35.50;;;15.90;;
76814;SDS011;65768;49.906;19.384;2023-02-15T07:50:22;36.10;;;16.80;;
76814;SDS011;65768;49.906;19.384;2023-02-15T07:52:51;32.60;;;14.70;;
76814;SDS011;65768;49.906;19.384;2023-02-15T07:55:19;35.00;;;15.20;;
76814;SDS011;65768;49.906;19.384;2023-02-15T07:57:48;31.20;;;15.20;;
76814;SDS011;65768;49.906;19.384;2023-02-15T08:00:18;30.80;;;15.30;;
76814;SDS011;65768;49.906;19.384;2023-02-15T08:02:53;31.10;;;16.20;;
76814;SDS011;65768;49.906;19.384;2023-02-15T08:05:41;27.10;;;13.10;;
76814;SDS011;65768;49.906;19.384;2023-02-15T08:08:11;33.10;;;15.00;;
76814;SDS011;65768;49.906;19.384;2023-02-15T08:11:04;28.90;;;14.20;;
76814;SDS011;65768;49.906;19.384;2023-02-15T08:13:52;35.00;;;15.60;;
76814;SDS011;65768;49.906;19.384;2023-02-15T08:16:32;33.20;;;14.50;;
76814;SDS011;65768;49.906;19.384;2023-02-15T08:19:06;32.40;;;14.70;;
76814;SDS011;65768;49.906;19.384;2023-02-15T08:21:37;29.30;;;14.10;;
76814;SDS011;65768;49.906;19.384;2023-02-15T08:24:08;32.10;;;13.40;;
76814;SDS011;65768;49.906;19.384;2023-02-15T08:26:38;25.20;;;11.80;;
76814;SDS011;65768;49.906;19.384;2023-02-15T08:29:07;25.90;;;13.10;;
76814;SDS011;65768;49.906;19.384;2023-02-15T08:31:36;24.80;;;11.40;;
76814;SDS011;65768;49.906;19.384;2023-02-15T08:34:05;27.40;;;14.30;;
76814;SDS011;65768;49.906;19.384;2023-02-15T08:36:33;29.20;;;12.80;;
76814;SDS011;65768;49.906;19.384;2023-02-15T08:39:02;27.90;;;13.80;;
76814;SDS011;65768;49.906;19.384;2023-02-15T08:41:33;30.40;;;14.90;;
76814;SDS011;65768;49.906;19.384;2023-02-15T08:44:04;28.20;;;13.80;;
76814;SDS011;65768;49.906;19.384;2023-02-15T08:46:35;37.40;;;15.10;;
76814;SDS011;65768;49.906;19.384;2023-02-15T08:49:05;23.50;;;11.40;;
76814;SDS011;65768;49.906;19.384;2023-02-15T08:51:35;30.00;;;14.00;;
76814;SDS011;65768;49.906;19.384;2023-02-15T08:54:06;29.20;;;12.40;;
76814;SDS011;65768;49.906;19.384;2023-02-15T08:56:37;24.00;;;12.60;;
76814;SDS011;65768;49.906;19.384;2023-02-15T08:59:11;25.60;;;10.10;;
76814;SDS011;65768;49.906;19.384;2023-02-15T09:01:44;27.50;;;13.00;;
76814;SDS011;65768;49.906;19.384;2023-02-15T09:04:13;28.30;;;14.40;;
76814;SDS011;65768;49.906;19.384;2023-02-15T09:06:45;32.10;;;14.00;;
76814;SDS011;65768;49.906;19.384;2023-02-15T09:09:14;24.00;;;11.90;;
76814;SDS011;65768;49.906;19.384;2023-02-15T09:11:45;26.10;;;12.20;;
76814;SDS011;65768;49.906;19.384;2023-02-15T09:14:16;26.00;;;12.60;;
76814;SDS011;65768;49.906;19.384;2023-02-15T09:16:47;28.50;;;13.40;;
76814;SDS011;65768;49.906;19.384;2023-02-15T09:19:19;29.40;;;12.50;;
76814;SDS011;65768;49.906;19.384;2023-02-15T09:21:48;24.10;;;11.60;;
76814;SDS011;65768;49.906;19.384;2023-02-15T09:24:16;25.70;;;11.80;;
76814;SDS011;65768;49.906;19.384;2023-02-15T09:26:46;24.20;;;11.20;;
76814;SDS011;65768;49.906;19.384;2023-02-15T09:29:16;26.30;;;11.10;;
76814;SDS011;65768;49.906;19.384;2023-02-15T09:31:46;27.10;;;12.40;;
76814;SDS011;65768;49.906;19.384;2023-02-15T09:34:17;19.00;;;9.50;;
76814;SDS011;65768;49.906;19.384;2023-02-15T09:36:47;22.50;;;11.00;;
76814;SDS011;65768;49.906;19.384;2023-02-15T09:39:17;21.30;;;10.50;;
76814;SDS011;65768;49.906;19.384;2023-02-15T09:47:25;16.40;;;8.00;;
76814;SDS011;65768;49.906;19.384;2023-02-15T09:56:04;20.80;;;10.10;;
76814;SDS011;65768;49.906;19.384;2023-02-15T10:09:43;28.00;;;13.10;;
76814;SDS011;65768;49.906;19.384;2023-02-15T10:16:19;22.40;;;11.80;;
76814;SDS011;65768;49.906;19.384;2023-02-15T10:18:36;19.30;;;10.90;;
76814;SDS011;65768;49.906;19.384;2023-02-15T10:21:17;21.30;;;11.00;;
76814;SDS011;65768;49.906;19.384;2023-02-15T10:27:10;20.00;;;11.00;;
76814;SDS011;65768;49.906;19.384;2023-02-15T10:30:01;24.00;;;10.50;;
76814;SDS011;65768;49.906;19.384;2023-02-15T10:32:30;15.80;;;8.30;;
76814;SDS011;65768;49.906;19.384;2023-02-15T10:38:27;24.60;;;11.70;;
76814;SDS011;65768;49.906;19.384;2023-02-15T10:59:20;29.90;;;13.40;;
76814;SDS011;65768;49.906;19.384;2023-02-15T11:02:07;26.10;;;12.60;;
76814;SDS011;65768;49.906;19.384;2023-02-15T11:07:43;19.50;;;9.90;;
76814;SDS011;65768;49.906;19.384;2023-02-15T11:12:52;24.10;;;13.10;;
76814;SDS011;65768;49.906;19.384;2023-02-15T11:18:00;22.30;;;11.00;;
76814;SDS011;65768;49.906;19.384;2023-02-15T11:20:42;19.60;;;10.30;;
76814;SDS011;65768;49.906;19.384;2023-02-15T11:23:18;22.20;;;10.60;;
76814;SDS011;65768;49.906;19.384;2023-02-15T11:25:56;18.70;;;10.30;;
76814;SDS011;65768;49.906;19.384;2023-02-15T11:28:31;19.90;;;10.10;;
76814;SDS011;65768;49.906;19.384;2023-02-15T11:31:11;18.60;;;9.20;;
76814;SDS011;65768;49.906;19.384;2023-02-15T11:33:44;17.10;;;9.60;;
76814;SDS011;65768;49.906;19.384;2023-02-15T11:36:39;16.70;;;8.00;;
76814;SDS011;65768;49.906;19.384;2023-02-15T11:39:12;16.10;;;7.90;;
76814;SDS011;65768;49.906;19.384;2023-02-15T11:41:53;15.60;;;7.90;;
76814;SDS011;65768;49.906;19.384;2023-02-15T11:44:26;15.10;;;7.90;;
76814;SDS011;65768;49.906;19.384;2023-02-15T11:47:00;18.70;;;8.40;;
76814;SDS011;65768;49.906;19.384;2023-02-15T11:49:32;18.10;;;9.00;;
76814;SDS011;65768;49.906;19.384;2023-02-15T11:52:06;16.10;;;7.80;;
76814;SDS011;65768;49.906;19.384;2023-02-15T11:54:46;16.90;;;8.10;;
76814;SDS011;65768;49.906;19.384;2023-02-15T11:57:33;18.30;;;9.00;;
76814;SDS011;65768;49.906;19.384;2023-02-15T12:00:16;21.30;;;10.90;;
76814;SDS011;65768;49.906;19.384;2023-02-15T12:02:46;19.00;;;9.90;;
76814;SDS011;65768;49.906;19.384;2023-02-15T12:05:21;19.90;;;11.10;;
76814;SDS011;65768;49.906;19.384;2023-02-15T12:07:54;18.40;;;9.30;;
76814;SDS011;65768;49.906;19.384;2023-02-15T12:10:34;17.70;;;9.10;;
76814;SDS011;65768;49.906;19.384;2023-02-15T12:13:11;22.90;;;10.20;;
76814;SDS011;65768;49.906;19.384;2023-02-15T12:15:45;27.50;;;11.60;;
76814;SDS011;65768;49.906;19.384;2023-02-15T12:21:07;23.00;;;10.70;;
76814;SDS011;65768;49.906;19.384;2023-02-15T12:23:48;19.50;;;9.00;;
76814;SDS011;65768;49.906;19.384;2023-02-15T12:28:54;24.50;;;11.00;;
76814;SDS011;65768;49.906;19.384;2023-02-15T12:31:31;18.40;;;9.40;;
76814;SDS011;65768;49.906;19.384;2023-02-15T12:34:09;19.90;;;10.50;;
76814;SDS011;65768;49.906;19.384;2023-02-15T12:36:42;21.30;;;10.10;;
76814;SDS011;65768;49.906;19.384;2023-02-15T12:39:18;18.60;;;9.60;;
76814;SDS011;65768;49.906;19.384;2023-02-15T12:42:00;22.30;;;11.00;;
76814;SDS011;65768;49.906;19.384;2023-02-15T12:44:34;19.40;;;9.80;;
76814;SDS011;65768;49.906;19.384;2023-02-15T12:47:05;22.20;;;11.10;;
76814;SDS011;65768;49.906;19.384;2023-02-15T12:49:51;23.00;;;12.50;;
76814;SDS011;65768;49.906;19.384;2023-02-15T12:52:33;29.40;;;13.90;;
76814;SDS011;65768;49.906;19.384;2023-02-15T12:58:16;27.70;;;12.90;;
76814;SDS011;65768;49.906;19.384;2023-02-15T13:00:46;21.50;;;11.40;;
76814;SDS011;65768;49.906;19.384;2023-02-15T13:03:19;25.20;;;11.10;;
76814;SDS011;65768;49.906;19.384;2023-02-15T13:05:52;32.60;;;14.10;;
76814;SDS011;65768;49.906;19.384;2023-02-15T13:08:26;25.90;;;12.70;;
76814;SDS011;65768;49.906;19.384;2023-02-15T13:10:57;31.30;;;14.20;;
76814;SDS011;65768;49.906;19.384;2023-02-15T13:13:30;27.70;;;13.60;;
76814;SDS011;65768;49.906;19.384;2023-02-15T13:16:02;28.00;;;12.60;;
76814;SDS011;65768;49.906;19.384;2023-02-15T13:18:43;24.70;;;13.00;;
76814;SDS011;65768;49.906;19.384;2023-02-15T13:21:14;24.90;;;11.80;;
76814;SDS011;65768;49.906;19.384;2023-02-15T13:23:47;22.90;;;10.90;;
76814;SDS011;65768;49.906;19.384;2023-02-15T13:26:19;24.20;;;11.50;;
76814;SDS011;65768;49.906;19.384;2023-02-15T13:28:51;22.10;;;10.70;;
76814;SDS011;65768;49.906;19.384;2023-02-15T13:31:24;23.90;;;12.00;;
76814;SDS011;65768;49.906;19.384;2023-02-15T13:34:09;22.80;;;11.80;;
76814;SDS011;65768;49.906;19.384;2023-02-15T13:40:01;24.80;;;12.50;;
76814;SDS011;65768;49.906;19.384;2023-02-15T13:54:24;22.40;;;11.40;;
76814;SDS011;65768;49.906;19.384;2023-02-15T14:05:14;26.20;;;11.50;;
76814;SDS011;65768;49.906;19.384;2023-02-15T14:08:18;23.60;;;10.90;;
76814;SDS011;65768;49.906;19.384;2023-02-15T14:16:09;25.10;;;11.70;;
76814;SDS011;65768;49.906;19.384;2023-02-15T14:18:51;20.20;;;9.50;;
76814;SDS011;65768;49.906;19.384;2023-02-15T14:31:56;21.20;;;10.40;;
76814;SDS011;65768;49.906;19.384;2023-02-15T14:34:30;21.60;;;10.90;;
76814;SDS011;65768;49.906;19.384;2023-02-15T14:41:15;24.10;;;11.00;;
76814;SDS011;65768;49.906;19.384;2023-02-15T14:49:15;20.20;;;9.70;;
76814;SDS011;65768;49.906;19.384;2023-02-15T14:56:45;21.70;;;11.00;;
76814;SDS011;65768;49.906;19.384;2023-02-15T15:05:09;22.30;;;10.30;;
76814;SDS011;65768;49.906;19.384;2023-02-15T15:07:52;20.50;;;11.00;;
76814;SDS011;65768;49.906;19.384;2023-02-15T15:12:50;27.30;;;13.40;;
76814;SDS011;65768;49.906;19.384;2023-02-15T15:18:05;25.30;;;12.30;;
76814;SDS011;65768;49.906;19.384;2023-02-15T15:20:38;21.40;;;11.80;;
76814;SDS011;65768;49.906;19.384;2023-02-15T15:49:10;23.20;;;12.60;;
76814;SDS011;65768;49.906;19.384;2023-02-15T15:51:43;26.30;;;14.40;;
76814;SDS011;65768;49.906;19.384;2023-02-15T15:54:23;24.70;;;13.10;;
76814;SDS011;65768;49.906;19.384;2023-02-15T15:56:58;27.60;;;13.40;;
76814;SDS011;65768;49.906;19.384;2023-02-15T15:59:30;27.00;;;12.70;;
76814;SDS011;65768;49.906;19.384;2023-02-15T16:02:04;22.40;;;12.40;;
76814;SDS011;65768;49.906;19.384;2023-02-15T16:04:39;22.40;;;11.20;;
76814;SDS011;65768;49.906;19.384;2023-02-15T16:12:34;27.20;;;13.70;;
76814;SDS011;65768;49.906;19.384;2023-02-15T16:15:17;36.20;;;16.50;;
76814;SDS011;65768;49.906;19.384;2023-02-15T16:17:48;30.20;;;14.50;;
76814;SDS011;65768;49.906;19.384;2023-02-15T16:20:29;34.40;;;17.20;;
76814;SDS011;65768;49.906;19.384;2023-02-15T16:23:09;32.20;;;14.90;;
76814;SDS011;65768;49.906;19.384;2023-02-15T16:26:03;28.20;;;14.00;;
76814;SDS011;65768;49.906;19.384;2023-02-15T16:28:54;34.80;;;15.80;;
76814;SDS011;65768;49.906;19.384;2023-02-15T16:31:23;45.60;;;19.40;;
76814;SDS011;65768;49.906;19.384;2023-02-15T16:33:52;139.10;;;56.10;;
76814;SDS011;65768;49.906;19.384;2023-02-15T16:36:26;114.30;;;47.80;;
76814;SDS011;65768;49.906;19.384;2023-02-15T16:41:25;108.90;;;48.00;;
76814;SDS011;65768;49.906;19.384;2023-02-15T16:44:06;75.00;;;35.00;;
76814;SDS011;65768;49.906;19.384;2023-02-15T16:49:20;79.70;;;37.10;;
76814;SDS011;65768;49.906;19.384;2023-02-15T16:51:59;88.30;;;43.50;;
76814;SDS011;65768;49.906;19.384;2023-02-15T16:54:36;104.10;;;50.90;;
76814;SDS011;65768;49.906;19.384;2023-02-15T16:57:05;94.00;;;45.90;;
76814;SDS011;65768;49.906;19.384;2023-02-15T16:59:45;76.30;;;35.80;;
76814;SDS011;65768;49.906;19.384;2023-02-15T17:02:17;66.70;;;34.60;;
76814;SDS011;65768;49.906;19.384;2023-02-15T17:05:02;64.80;;;29.80;;
76814;SDS011;65768;49.906;19.384;2023-02-15T17:10:31;69.50;;;30.30;;
76814;SDS011;65768;49.906;19.384;2023-02-15T17:13:11;83.10;;;37.80;;
76814;SDS011;65768;49.906;19.384;2023-02-15T17:15:42;102.30;;;47.30;;
76814;SDS011;65768;49.906;19.384;2023-02-15T17:18:16;100.20;;;47.00;;
76814;SDS011;65768;49.906;19.384;2023-02-15T17:20:46;97.20;;;45.50;;
76814;SDS011;65768;49.906;19.384;2023-02-15T17:25:53;114.70;;;57.60;;
76814;SDS011;65768;49.906;19.384;2023-02-15T17:28:23;138.90;;;68.60;;
76814;SDS011;65768;49.906;19.384;2023-02-15T17:30:56;150.20;;;74.50;;
76814;SDS011;65768;49.906;19.384;2023-02-15T17:33:35;130.30;;;64.10;;
76814;SDS011;65768;49.906;19.384;2023-02-15T17:36:11;160.60;;;82.30;;
76814;SDS011;65768;49.906;19.384;2023-02-15T17:41:29;122.90;;;57.60;;
76814;SDS011;65768;49.906;19.384;2023-02-15T17:43:58;139.30;;;70.30;;
76814;SDS011;65768;49.906;19.384;2023-02-15T17:46:28;153.30;;;74.90;;
76814;SDS011;65768;49.906;19.384;2023-02-15T17:49:02;180.50;;;90.60;;
76814;SDS011;65768;49.906;19.384;2023-02-15T17:51:32;170.80;;;84.70;;
76814;SDS011;65768;49.906;19.384;2023-02-15T17:54:02;193.00;;;91.70;;
76814;SDS011;65768;49.906;19.384;2023-02-15T17:56:49;221.60;;;102.10;;
76814;SDS011;65768;49.906;19.384;2023-02-15T17:59:18;216.80;;;99.90;;
76814;SDS011;65768;49.906;19.384;2023-02-15T18:01:47;221.60;;;101.20;;
76814;SDS011;65768;49.906;19.384;2023-02-15T18:04:35;261.40;;;110.90;;
76814;SDS011;65768;49.906;19.384;2023-02-15T18:07:22;215.40;;;91.60;;
76814;SDS011;65768;49.906;19.384;2023-02-15T18:10:13;179.20;;;86.40;;